Time;durP1;ratioP1;P1;durP2;ratioP2;P2;SDS_P1;SDS_P2;PMS_P1;PMS_P2;Temp;Humidity;BMP_temperature;BMP_pressure;BME280_temperature;BME280_humidity;BME280_pressure;Samples;Min_cycle;Max_cycle;Signal;HPM_P1;HPM_P2
2024/01/30 00:00:21;;;;;;;22.27;9.90;;;;;;;7.57;100.00;102465.09;5084976;28;20026;-71
2024/01/30 00:02:46;;;;;;;21.38;9.95;;;;;;;7.57;100.00;102465.09;5085420;28;20020;-76
2024/01/30 00:05:12;;;;;;;21.17;9.93;;;;;;;7.57;100.00;102457.19;5086302;28;20035;-79
2024/01/30 00:07:37;;;;;;;21.15;9.82;;;;;;;7.60;100.00;102464.31;5084791;28;20029;-79
2024/01/30 00:10:03;;;;;;;20.90;10.05;;;;;;;7.59;100.00;102463.41;5087462;28;20039;-72
2024/01/30 00:12:28;;;;;;;21.05;9.70;;;;;;;7.56;100.00;102460.66;5083543;28;20029;-73
2024/01/30 00:14:54;;;;;;;21.65;9.70;;;;;;;7.54;100.00;102459.69;5086476;28;20050;-71
2024/01/30 00:17:20;;;;;;;20.48;9.20;;;;;;;7.49;100.00;102455.97;5084802;28;20031;-71
2024/01/30 00:19:46;;;;;;;21.65;9.73;;;;;;;7.49;100.00;102469.13;5087576;28;20041;-74
2024/01/30 00:22:11;;;;;;;21.58;9.35;;;;;;;7.49;100.00;102458.59;5084241;28;20047;-74
2024/01/30 00:24:37;;;;;;;19.90;9.20;;;;;;;7.45;100.00;102449.66;5086452;28;20039;-71
2024/01/30 00:27:02;;;;;;;21.13;9.82;;;;;;;7.45;100.00;102456.66;5083404;28;20043;-71
2024/01/30 00:29:30;;;;;;;21.15;9.45;;;;;;;7.45;100.00;102454.91;5086841;28;20035;-72
2024/01/30 00:31:56;;;;;;;21.33;9.82;;;;;;;7.43;100.00;102460.97;5082509;28;20522;-72
2024/01/30 00:34:21;;;;;;;21.33;9.55;;;;;;;7.40;100.00;102448.56;5085693;28;20024;-71
2024/01/30 00:36:47;;;;;;;21.13;9.48;;;;;;;7.38;100.00;102457.22;5084720;28;20036;-73
2024/01/30 00:39:12;;;;;;;20.90;9.20;;;;;;;7.36;100.00;102448.38;5084340;28;20036;-72
2024/01/30 00:41:38;;;;;;;21.15;9.60;;;;;;;7.36;100.00;102443.13;5086257;28;20043;-78
2024/01/30 00:44:03;;;;;;;21.92;9.75;;;;;;;7.35;100.00;102451.84;5083253;28;20021;-71
2024/01/30 00:46:28;;;;;;;21.30;9.70;;;;;;;7.32;100.00;102450.88;5086341;28;20062;-71
2024/01/30 00:48:54;;;;;;;21.15;9.48;;;;;;;7.28;100.00;102451.59;5083871;28;20103;-71
2024/01/30 00:51:19;;;;;;;20.90;9.57;;;;;;;7.27;100.00;102447.16;5085237;28;20170;-71
2024/01/30 00:53:45;;;;;;;21.38;9.25;;;;;;;7.26;100.00;102444.44;5084999;28;20024;-71
2024/01/30 00:56:10;;;;;;;21.40;9.80;;;;;;;7.27;100.00;102444.50;5083682;28;20040;-72
2024/01/30 00:58:35;;;;;;;20.60;9.38;;;;;;;7.24;100.00;102435.59;5085808;28;20039;-72
2024/01/30 01:01:01;;;;;;;21.63;9.90;;;;;;;7.23;100.00;102436.44;5082031;28;20032;-77
2024/01/30 01:03:26;;;;;;;20.75;9.45;;;;;;;7.25;100.00;102440.00;5085621;28;20020;-71
2024/01/30 01:05:51;;;;;;;20.73;9.52;;;;;;;7.22;100.00;102435.50;5083768;28;20036;-71
2024/01/30 01:08:17;;;;;;;21.02;9.70;;;;;;;7.22;100.00;102446.03;5084399;28;20108;-76
2024/01/30 01:10:43;;;;;;;20.40;9.32;;;;;;;7.16;100.00;102443.13;5084579;28;20028;-78
2024/01/30 01:13:08;;;;;;;20.42;9.10;;;;;;;7.15;100.00;102438.72;5081716;28;20058;-79
2024/01/30 01:15:33;;;;;;;21.30;9.77;;;;;;;7.15;100.00;102434.34;5085937;28;20032;-72
2024/01/30 01:18:00;;;;;;;21.42;9.73;;;;;;;7.16;100.00;102437.88;5078438;28;20068;-74
2024/01/30 01:20:25;;;;;;;20.77;9.48;;;;;;;7.20;100.00;102434.56;5085129;28;20063;-72
2024/01/30 01:22:52;;;;;;;21.30;9.80;;;;;;;7.21;100.00;102431.09;5083587;28;20113;-71
2024/01/30 01:25:17;;;;;;;21.73;9.75;;;;;;;7.24;100.00;102428.59;5082723;28;20071;-73
2024/01/30 01:27:44;;;;;;;20.45;9.30;;;;;;;7.27;100.00;102430.47;5084313;28;20544;-72
2024/01/30 01:30:11;;;;;;;21.25;9.45;;;;;;;7.28;100.00;102420.00;5082910;28;20035;-72
2024/01/30 01:32:38;;;;;;;20.95;9.10;;;;;;;7.30;100.00;102425.34;5084987;28;20028;-73
2024/01/30 01:35:05;;;;;;;20.45;9.27;;;;;;;7.33;100.00;102421.09;5080555;28;20028;-74
2024/01/30 01:37:31;;;;;;;20.90;9.15;;;;;;;7.36;100.00;102422.97;5078076;28;20028;-72
2024/01/30 01:39:56;;;;;;;20.67;9.63;;;;;;;7.41;100.00;102417.88;5084780;28;20039;-78
2024/01/30 01:42:22;;;;;;;20.63;9.60;;;;;;;7.41;100.00;102410.91;5082891;28;20024;-71
2024/01/30 01:44:47;;;;;;;20.83;9.30;;;;;;;7.43;100.00;102414.50;5083898;28;20098;-71
2024/01/30 01:47:13;;;;;;;20.42;9.13;;;;;;;7.43;100.00;102413.59;5084053;28;20471;-71
2024/01/30 01:49:38;;;;;;;20.83;9.30;;;;;;;7.45;100.00;102412.81;5082381;28;20037;-72
2024/01/30 01:52:04;;;;;;;19.92;8.88;;;;;;;7.43;100.00;102408.34;5085375;28;20034;-71
2024/01/30 01:54:30;;;;;;;21.38;9.57;;;;;;;7.40;100.00;102401.22;5081018;28;20067;-73
2024/01/30 01:56:56;;;;;;;21.40;9.15;;;;;;;7.42;100.00;102402.16;5082326;28;20040;-72
2024/01/30 01:59:23;;;;;;;21.38;9.15;;;;;;;7.42;100.00;102403.91;5083759;28;20048;-71
2024/01/30 02:01:49;;;;;;;21.27;9.38;;;;;;;7.39;100.00;102403.78;5082959;28;20032;-74
2024/01/30 02:04:15;;;;;;;20.10;8.95;;;;;;;7.38;100.00;102399.34;5083183;28;20465;-71
2024/01/30 02:06:41;;;;;;;20.52;8.90;;;;;;;7.39;100.00;102393.25;5083964;28;20020;-71
2024/01/30 02:09:07;;;;;;;20.90;9.23;;;;;;;7.39;100.00;102398.53;5080149;28;20029;-72
2024/01/30 02:11:32;;;;;;;20.88;9.20;;;;;;;7.40;100.00;102390.69;5084724;28;20020;-72
2024/01/30 02:14:03;;;;;;;20.23;9.35;;;;;;;7.41;100.00;102404.72;5081449;28;20464;-71
2024/01/30 02:16:28;;;;;;;20.02;8.88;;;;;;;7.41;100.00;102397.75;5084428;28;20032;-71
2024/01/30 02:18:53;;;;;;;20.98;8.90;;;;;;;7.41;100.00;102396.84;5082327;28;20031;-71
2024/01/30 02:21:19;;;;;;;20.40;8.98;;;;;;;7.43;100.00;102395.19;5082866;28;20467;-72
2024/01/30 02:23:46;;;;;;;20.80;9.30;;;;;;;7.43;100.00;102400.47;5083466;28;20061;-75
2024/01/30 02:26:12;;;;;;;21.23;9.18;;;;;;;7.42;100.00;102394.28;5082290;28;20467;-71
2024/01/30 02:28:38;;;;;;;20.95;9.23;;;;;;;7.41;100.00;102399.47;5082801;28;20089;-73
2024/01/30 02:31:04;;;;;;;20.58;9.10;;;;;;;7.42;100.00;102393.38;5081375;28;20124;-72
2024/01/30 02:33:29;;;;;;;20.02;8.60;;;;;;;7.46;100.00;102395.31;5084605;28;20106;-71
2024/01/30 02:35:55;;;;;;;19.90;8.90;;;;;;;7.46;100.00;102395.31;5081770;28;20131;-71
2024/01/30 02:38:20;;;;;;;20.75;8.98;;;;;;;7.45;100.00;102390.88;5083028;28;20025;-71
2024/01/30 02:40:45;;;;;;;20.17;9.00;;;;;;;7.45;100.00;102391.75;5083173;28;20024;-71
2024/01/30 02:43:11;;;;;;;21.63;9.05;;;;;;;7.42;100.00;102383.75;5081738;28;20024;-73
2024/01/30 02:45:36;;;;;;;21.42;9.10;;;;;;;7.43;100.00;102387.28;5084160;28;20486;-76
2024/01/30 02:48:02;;;;;;;21.25;9.20;;;;;;;7.42;100.00;102393.38;5081202;28;20029;-71
2024/01/30 02:50:27;;;;;;;20.17;9.10;;;;;;;7.41;100.00;102383.69;5083871;28;20031;-71
2024/01/30 02:52:53;;;;;;;20.25;9.18;;;;;;;7.42;100.00;102385.50;5081842;28;20059;-71
2024/01/30 02:55:18;;;;;;;21.05;9.18;;;;;;;7.42;100.00;102388.13;5081445;28;20068;-71
2024/01/30 02:57:44;;;;;;;20.65;9.20;;;;;;;7.43;100.00;102389.94;5083187;28;20024;-72
2024/01/30 03:00:10;;;;;;;20.58;9.00;;;;;;;7.44;100.00;102387.38;5081457;28;20536;-75
2024/01/30 03:02:36;;;;;;;20.83;8.80;;;;;;;7.44;100.00;102379.47;5084356;28;20028;-75
2024/01/30 03:05:03;;;;;;;20.48;8.98;;;;;;;7.42;100.00;102385.50;5076700;28;20021;-72
2024/01/30 03:07:29;;;;;;;20.23;8.90;;;;;;;7.40;100.00;102384.53;5084147;28;20034;-71
2024/01/30 03:09:55;;;;;;;21.27;9.52;;;;;;;7.36;100.00;102377.34;5081601;28;20028;-72
2024/01/30 03:12:21;;;;;;;20.90;9.23;;;;;;;7.34;100.00;102369.41;5082589;28;20037;-72
2024/01/30 03:14:46;;;;;;;20.40;9.00;;;;;;;7.35;100.00;102367.66;5081542;28;20085;-74
2024/01/30 03:17:11;;;;;;;21.00;9.57;;;;;;;7.31;100.00;102367.53;5081314;28;20035;-77
2024/01/30 03:19:37;;;;;;;20.38;9.23;;;;;;;7.29;100.00;102355.13;5084079;28;20072;-77
2024/01/30 03:22:02;;;;;;;20.63;8.82;;;;;;;7.27;100.00;102357.69;5080638;28;20495;-77
2024/01/30 03:24:28;;;;;;;20.80;8.98;;;;;;;7.32;100.00;102355.25;5085648;28;20540;-76
2024/01/30 03:26:53;;;;;;;21.30;9.20;;;;;;;7.32;100.00;102371.03;5085455;28;20107;-71
2024/01/30 03:29:19;;;;;;;19.80;8.93;;;;;;;7.35;100.00;102365.03;5086271;28;20029;-72
2024/01/30 03:31:44;;;;;;;20.95;8.93;;;;;;;7.32;100.00;102364.06;5086636;28;20032;-72
2024/01/30 03:34:09;;;;;;;20.27;8.85;;;;;;;7.38;100.00;102355.50;5084697;28;20083;-72
2024/01/30 03:36:35;;;;;;;20.38;9.18;;;;;;;7.38;100.00;102354.63;5087872;28;20402;-71
2024/01/30 03:39:01;;;;;;;20.10;8.88;;;;;;;7.35;100.00;102350.13;5084209;28;20113;-75
2024/01/30 03:41:26;;;;;;;21.63;9.30;;;;;;;7.34;100.00;102350.97;5087124;28;20390;-73
2024/01/30 03:43:52;;;;;;;20.58;9.05;;;;;;;7.36;100.00;102356.31;5084347;28;20065;-72
2024/01/30 03:46:17;;;;;;;21.40;9.27;;;;;;;7.37;100.00;102360.72;5085634;28;20029;-72
2024/01/30 03:48:43;;;;;;;21.55;9.38;;;;;;;7.36;100.00;102357.19;5086656;28;20024;-73
2024/01/30 03:51:14;;;;;;;20.25;8.93;;;;;;;7.38;100.00;102360.75;5084202;28;20039;-74
2024/01/30 03:53:39;;;;;;;19.75;8.98;;;;;;;7.42;100.00;102357.44;5086847;28;20031;-72
2024/01/30 03:56:05;;;;;;;20.27;8.70;;;;;;;7.46;100.00;102363.75;5084314;28;20032;-72
2024/01/30 03:58:30;;;;;;;20.52;8.40;;;;;;;7.48;100.00;102365.59;5087170;28;20528;-80
2024/01/30 04:00:56;;;;;;;21.75;8.80;;;;;;;7.53;100.00;102364.88;5084490;28;20032;-79
2024/01/30 04:03:21;;;;;;;20.20;8.55;;;;;;;7.52;100.00;102366.63;5086001;28;20025;-80
2024/01/30 04:05:46;;;;;;;20.55;8.43;;;;;;;7.58;100.00;102368.59;5085944;28;20482;-79
2024/01/30 04:08:12;;;;;;;20.90;9.10;;;;;;;7.66;100.00;102373.34;5084331;28;20436;-79
2024/01/30 04:10:37;;;;;;;20.52;8.50;;;;;;;7.68;100.00;102366.41;5087138;28;20048;-80
2024/01/30 04:13:02;;;;;;;20.20;8.82;;;;;;;7.68;100.00;102361.13;5083557;28;20494;-79
2024/01/30 04:15:29;;;;;;;20.08;8.75;;;;;;;7.67;100.00;102369.88;5085198;28;20502;-79
2024/01/30 04:17:57;;;;;;;20.30;8.93;;;;;;;7.67;100.00;102367.25;5083506;28;20024;-79
2024/01/30 04:20:23;;;;;;;21.75;9.32;;;;;;;7.74;100.00;102362.22;5085541;28;20506;-79
2024/01/30 04:22:48;;;;;;;21.23;8.88;;;;;;;7.79;100.00;102355.41;5083904;28;20052;-79
2024/01/30 04:25:14;;;;;;;20.55;8.88;;;;;;;7.77;100.00;102354.44;5084445;28;20024;-79
2024/01/30 04:27:39;;;;;;;20.55;8.75;;;;;;;7.79;100.00;102352.75;5086354;28;20145;-79
2024/01/30 04:30:05;;;;;;;21.23;8.90;;;;;;;7.83;100.00;102350.34;5083262;28;20028;-78
2024/01/30 04:32:31;;;;;;;21.08;8.88;;;;;;;7.84;100.00;102341.59;5086908;28;20035;-79
2024/01/30 04:34:56;;;;;;;19.88;8.55;;;;;;;7.87;100.00;102337.28;5084164;28;20111;-80
2024/01/30 04:37:23;;;;;;;19.50;8.23;;;;;;;7.92;100.00;102344.53;5086015;28;20070;-79
2024/01/30 04:39:48;;;;;;;20.88;8.60;;;;;;;7.92;100.00;102335.72;5081788;28;20035;-80
2024/01/30 04:42:14;;;;;;;21.33;8.60;;;;;;;8.03;100.00;102334.41;5085890;28;20059;-79
2024/01/30 04:44:39;;;;;;;19.80;8.10;;;;;;;8.03;100.00;102331.78;5083764;28;20078;-79
2024/01/30 04:47:05;;;;;;;19.95;8.07;;;;;;;8.03;100.00;102324.75;5086990;28;20043;-79
2024/01/30 04:49:31;;;;;;;20.13;8.40;;;;;;;8.08;100.00;102324.03;5083500;28;20020;-80
2024/01/30 04:51:57;;;;;;;19.90;8.23;;;;;;;8.08;100.00;102318.78;5086006;28;20433;-71
2024/01/30 04:54:23;;;;;;;19.55;7.85;;;;;;;8.11;100.00;102322.44;5084156;28;20032;-71
2024/01/30 04:56:48;;;;;;;20.33;7.90;;;;;;;8.09;100.00;102320.56;5084489;28;20133;-74
2024/01/30 04:59:13;;;;;;;19.95;7.95;;;;;;;8.13;100.00;102333.03;5085808;28;20058;-75
2024/01/30 05:01:39;;;;;;;19.52;7.85;;;;;;;8.18;100.00;102320.91;5082871;28;20029;-76
2024/01/30 05:04:07;;;;;;;19.33;8.00;;;;;;;8.21;100.00;102331.56;5086227;28;20055;-78
2024/01/30 05:06:33;;;;;;;19.25;7.90;;;;;;;8.19;100.00;102322.72;5079073;28;20020;-76
2024/01/30 05:08:58;;;;;;;19.98;7.68;;;;;;;8.14;100.00;102329.53;5085413;28;20104;-71
2024/01/30 05:11:23;;;;;;;20.00;7.95;;;;;;;8.12;100.00;102329.47;5083585;28;20055;-73
2024/01/30 05:13:49;;;;;;;19.23;7.68;;;;;;;8.17;100.00;102327.94;5084169;28;20024;-76
2024/01/30 05:16:14;;;;;;;19.63;7.80;;;;;;;8.26;100.00;102335.28;5083457;28;20494;-74
2024/01/30 05:18:40;;;;;;;20.15;8.20;;;;;;;8.26;100.00;102339.66;5082897;28;20036;-75
2024/01/30 05:21:05;;;;;;;19.75;7.90;;;;;;;8.22;100.00;102336.00;5085677;28;20040;-76
2024/01/30 05:23:31;;;;;;;19.60;8.02;;;;;;;8.15;100.00;102333.97;5082619;28;20028;-75
2024/01/30 05:25:56;;;;;;;19.23;7.80;;;;;;;8.11;100.00;102338.25;5085026;28;20028;-77
2024/01/30 05:28:22;;;;;;;20.05;8.20;;;;;;;8.09;100.00;102325.84;5082159;28;20085;-71
2024/01/30 05:30:47;;;;;;;20.38;7.97;;;;;;;8.07;100.00;102328.41;5083603;28;20024;-71
2024/01/30 05:33:13;;;;;;;19.80;8.18;;;;;;;8.08;100.00;102331.94;5084988;28;20382;-71
2024/01/30 05:35:38;;;;;;;19.92;7.80;;;;;;;8.10;100.00;102339.06;5082078;28;20430;-71
2024/01/30 05:38:04;;;;;;;19.92;8.10;;;;;;;8.15;100.00;102336.59;5085725;28;20036;-74
2024/01/30 05:40:30;;;;;;;20.70;8.43;;;;;;;8.19;100.00;102327.97;5082803;28;20056;-73
2024/01/30 05:42:56;;;;;;;20.10;8.38;;;;;;;8.25;100.00;102324.69;5084410;28;20139;-74
2024/01/30 05:45:23;;;;;;;20.65;8.25;;;;;;;8.26;100.00;102327.38;5082907;28;20526;-77
2024/01/30 05:47:48;;;;;;;19.60;8.27;;;;;;;8.27;100.00;102331.81;5083470;28;20086;-71
2024/01/30 05:50:14;;;;;;;20.45;8.23;;;;;;;8.30;100.00;102336.28;5084380;28;20032;-71
2024/01/30 05:52:39;;;;;;;19.83;8.60;;;;;;;8.29;100.00;102329.25;5082123;28;20487;-74
2024/01/30 05:55:05;;;;;;;19.83;8.02;;;;;;;8.28;100.00;102335.34;5085448;28;20032;-71
2024/01/30 05:57:30;;;;;;;19.65;8.25;;;;;;;8.26;100.00;102329.13;5080745;28;20082;-72
2024/01/30 05:59:56;;;;;;;21.25;8.40;;;;;;;8.28;100.00;102328.31;5084004;28;20028;-76
2024/01/30 06:02:21;;;;;;;20.15;8.15;;;;;;;8.29;100.00;102335.41;5083343;28;20123;-73
2024/01/30 06:04:47;;;;;;;19.73;7.95;;;;;;;8.29;100.00;102334.50;5082732;28;20436;-73
2024/01/30 06:07:12;;;;;;;20.52;8.40;;;;;;;8.30;100.00;102328.38;5084287;28;20036;-72
2024/01/30 06:09:38;;;;;;;20.52;8.48;;;;;;;8.30;100.00;102331.94;5080530;28;20024;-71
2024/01/30 06:12:05;;;;;;;20.02;8.52;;;;;;;8.30;100.00;102334.56;5077291;28;20029;-72
2024/01/30 06:14:30;;;;;;;20.10;8.05;;;;;;;8.31;100.00;102338.09;5084585;28;20040;-72
2024/01/30 06:16:56;;;;;;;19.38;7.90;;;;;;;8.33;100.00;102333.75;5082241;28;20107;-71
2024/01/30 06:19:21;;;;;;;20.25;8.00;;;;;;;8.37;100.00;102333.94;5083082;28;20547;-72
2024/01/30 06:21:46;;;;;;;18.77;7.65;;;;;;;8.41;100.00;102334.94;5083552;28;20060;-75
2024/01/30 06:24:12;;;;;;;19.40;8.20;;;;;;;8.40;100.00;102345.44;5082299;28;20036;-79
2024/01/30 06:26:37;;;;;;;19.40;8.18;;;;;;;8.40;100.00;102341.03;5084906;28;20379;-79
2024/01/30 06:29:02;;;;;;;20.23;8.40;;;;;;;8.38;100.00;102345.38;5082032;28;20089;-79
2024/01/30 06:31:28;;;;;;;20.15;7.90;;;;;;;8.41;100.00;102341.97;5084194;28;20059;-79
2024/01/30 06:33:53;;;;;;;19.52;8.05;;;;;;;8.42;100.00;102351.66;5082898;28;20028;-78
2024/01/30 06:36:18;;;;;;;20.17;7.82;;;;;;;8.37;100.00;102348.84;5081546;28;20082;-79
2024/01/30 06:38:44;;;;;;;20.10;7.95;;;;;;;8.37;100.00;102352.41;5082380;28;20063;-79
2024/01/30 06:41:09;;;;;;;20.85;8.32;;;;;;;8.43;100.00;102358.72;5081051;28;20429;-78
2024/01/30 06:43:34;;;;;;;19.80;8.45;;;;;;;8.47;100.00;102360.66;5084563;28;20040;-79
2024/01/30 06:46:00;;;;;;;20.15;8.57;;;;;;;8.43;100.00;102353.44;5081570;28;20130;-78
2024/01/30 06:48:25;;;;;;;20.38;8.40;;;;;;;8.44;100.00;102357.88;5083650;28;20476;-72
2024/01/30 06:50:53;;;;;;;19.80;8.32;;;;;;;8.45;100.00;102351.81;5081278;28;20024;-73
2024/01/30 06:53:19;;;;;;;19.80;8.48;;;;;;;8.48;100.00;102351.94;5082308;28;20577;-71
2024/01/30 06:55:44;;;;;;;19.85;8.45;;;;;;;8.50;100.00;102363.41;5083427;28;20135;-71
2024/01/30 06:58:09;;;;;;;20.25;8.63;;;;;;;8.51;100.00;102360.84;5082286;28;20025;-71
2024/01/30 07:00:36;;;;;;;20.58;8.60;;;;;;;8.51;100.00;102368.75;5087110;28;20032;-78
2024/01/30 07:03:04;;;;;;;20.38;8.50;;;;;;;8.58;100.00;102379.50;5085317;28;20079;-78
2024/01/30 07:05:29;;;;;;;19.80;8.40;;;;;;;8.61;100.00;102390.19;5087802;28;20036;-77
2024/01/30 07:07:55;;;;;;;20.95;8.57;;;;;;;8.61;100.00;102391.06;5085893;28;20047;-74
2024/01/30 07:10:20;;;;;;;20.25;8.45;;;;;;;8.63;100.00;102383.22;5086658;28;20040;-72
2024/01/30 07:12:46;;;;;;;19.77;8.05;;;;;;;8.70;100.00;102395.78;5086179;28;20082;-73
2024/01/30 07:15:12;;;;;;;19.85;8.20;;;;;;;8.73;100.00;102394.16;5084855;28;20501;-77
2024/01/30 07:17:38;;;;;;;21.63;8.80;;;;;;;8.74;100.00;102395.06;5088195;28;20037;-76
2024/01/30 07:20:04;;;;;;;20.33;8.52;;;;;;;8.76;100.00;102396.00;5084730;28;20074;-75
2024/01/30 07:22:30;;;;;;;21.40;8.32;;;;;;;8.84;100.00;102398.91;5087283;28;20134;-75
2024/01/30 07:24:55;;;;;;;20.27;8.40;;;;;;;8.86;100.00;102397.25;5086024;28;20036;-74
2024/01/30 07:27:21;;;;;;;21.30;8.65;;;;;;;8.87;100.00;102401.69;5086255;28;20033;-72
2024/01/30 07:29:46;;;;;;;20.60;8.55;;;;;;;8.89;100.00;102394.72;5087176;28;20028;-73
2024/01/30 07:32:12;;;;;;;20.45;8.65;;;;;;;8.86;100.00;102407.78;5084994;28;20031;-72
2024/01/30 07:34:37;;;;;;;20.88;8.90;;;;;;;8.80;100.00;102403.19;5088091;28;20039;-73
2024/01/30 07:37:03;;;;;;;20.17;8.88;;;;;;;8.88;100.00;102414.00;5084406;28;20480;-71
2024/01/30 07:39:28;;;;;;;20.10;8.50;;;;;;;8.87;100.00;102412.25;5087114;28;20085;-71
2024/01/30 07:41:53;;;;;;;20.02;8.43;;;;;;;8.86;100.00;102418.34;5085526;28;20039;-73
2024/01/30 07:44:20;;;;;;;20.52;8.52;;;;;;;8.88;100.00;102408.75;5085949;28;20036;-72
2024/01/30 07:46:45;;;;;;;20.90;8.82;;;;;;;8.88;100.00;102406.09;5086621;28;20028;-76
2024/01/30 07:49:10;;;;;;;20.30;8.52;;;;;;;8.89;100.00;102410.53;5084379;28;20086;-72
2024/01/30 07:51:36;;;;;;;21.15;8.85;;;;;;;8.92;100.00;102425.59;5087708;28;20024;-72
2024/01/30 07:54:01;;;;;;;21.23;8.65;;;;;;;8.94;100.00;102416.91;5084659;28;20040;-71
2024/01/30 07:56:27;;;;;;;20.05;8.45;;;;;;;8.97;100.00;102421.34;5086315;28;20078;-72
2024/01/30 07:58:52;;;;;;;20.88;8.70;;;;;;;9.01;100.00;102437.38;5085668;28;20111;-72
2024/01/30 08:01:18;;;;;;;20.55;8.43;;;;;;;9.06;100.00;102433.16;5085020;28;20502;-72
2024/01/30 08:03:44;;;;;;;19.73;8.45;;;;;;;9.07;100.00;102429.69;5086498;28;20028;-72
2024/01/30 08:06:09;;;;;;;21.42;8.77;;;;;;;9.03;100.00;102430.41;5084165;28;20074;-73
2024/01/30 08:08:35;;;;;;;20.10;8.65;;;;;;;9.04;100.00;102434.84;5086709;28;20060;-73
2024/01/30 08:11:00;;;;;;;21.35;8.48;;;;;;;9.09;100.00;102437.63;5084055;28;20049;-72
2024/01/30 08:13:25;;;;;;;20.13;8.25;;;;;;;9.14;100.00;102445.72;5086088;28;20039;-73
2024/01/30 08:15:51;;;;;;;20.98;8.68;;;;;;;9.17;100.00;102440.53;5085574;28;20549;-71
2024/01/30 08:18:16;;;;;;;19.98;8.38;;;;;;;9.17;100.00;102443.19;5084803;28;20031;-72
2024/01/30 08:20:41;;;;;;;20.55;8.35;;;;;;;9.17;100.00;102436.16;5085365;28;20032;-72
2024/01/30 08:23:07;;;;;;;21.30;8.45;;;;;;;9.22;100.00;102445.16;5083178;28;20491;-72
2024/01/30 08:25:32;;;;;;;19.67;8.23;;;;;;;9.31;100.00;102434.00;5086733;28;20050;-71
2024/01/30 08:27:58;;;;;;;20.63;8.07;;;;;;;9.36;100.00;102435.09;5083016;28;20089;-71
2024/01/30 08:30:23;;;;;;;20.55;8.55;;;;;;;9.43;100.00;102447.63;5084070;28;20025;-77
2024/01/30 08:32:48;;;;;;;19.95;8.10;;;;;;;9.49;100.00;102446.94;5086111;28;20076;-79
2024/01/30 08:35:15;;;;;;;20.25;8.38;;;;;;;9.50;100.00;102439.94;5084471;28;20041;-78
2024/01/30 08:37:41;;;;;;;19.67;8.15;;;;;;;9.54;100.00;102442.72;5087275;28;20028;-78
2024/01/30 08:40:08;;;;;;;21.10;8.32;;;;;;;9.58;100.00;102444.63;5083616;28;20543;-78
2024/01/30 08:42:33;;;;;;;20.70;8.63;;;;;;;9.63;100.00;102447.41;5086835;28;20028;-78
2024/01/30 08:44:59;;;;;;;20.35;8.07;;;;;;;9.70;100.00;102453.81;5082844;28;20225;-79
2024/01/30 08:47:25;;;;;;;19.75;8.30;;;;;;;9.74;100.00;102440.75;5085114;28;20033;-71
2024/01/30 08:49:50;;;;;;;20.08;8.30;;;;;;;9.80;100.00;102439.16;5084850;28;20028;-74
2024/01/30 08:52:16;;;;;;;21.55;8.75;;;;;;;9.81;100.00;102443.59;5082418;28;20028;-71
2024/01/30 08:54:41;;;;;;;21.65;8.60;;;;;;;9.87;100.00;102439.44;5086032;28;20123;-71
2024/01/30 08:57:06;;;;;;;21.17;8.65;;;;;;;9.91;100.00;102437.75;5083047;28;20086;-71
2024/01/30 08:59:32;;;;;;;20.85;8.90;;;;;;;9.92;100.00;102440.47;5085862;28;20028;-72
2024/01/30 09:01:59;;;;;;;20.85;8.15;;;;;;;9.97;100.00;102437.97;5083969;28;20024;-71
2024/01/30 09:04:24;;;;;;;19.92;8.23;;;;;;;10.01;100.00;102447.78;5084595;28;20035;-74
2024/01/30 09:06:50;;;;;;;21.08;8.60;;;;;;;10.03;100.00;102451.38;5084828;28;20095;-71
2024/01/30 09:09:16;;;;;;;20.70;8.38;;;;;;;10.09;100.00;102454.22;5083310;28;20043;-73
2024/01/30 09:11:41;;;;;;;20.00;8.27;;;;;;;10.12;100.00;102449.03;5085992;28;20069;-71
2024/01/30 09:14:06;;;;;;;21.58;8.60;;;;;;;10.20;100.00;102443.09;5082531;28;20032;-73
2024/01/30 09:16:32;;;;;;;21.27;8.45;;;;;;;10.28;100.00;102452.13;5085512;28;20024;-72
2024/01/30 09:18:57;;;;;;;21.30;8.52;;;;;;;10.31;100.00;102457.53;5083259;28;20032;-74
2024/01/30 09:21:23;;;;;;;20.65;8.32;;;;;;;10.33;100.00;102463.75;5083137;28;20055;-75
2024/01/30 09:23:48;;;;;;;21.08;8.45;;;;;;;10.37;100.00;102452.47;5084467;28;20032;-74
2024/01/30 09:26:14;;;;;;;21.90;9.10;;;;;;;10.37;100.00;102465.69;5083006;28;20033;-76
2024/01/30 09:28:40;;;;;;;20.15;8.45;;;;;;;10.40;100.00;102465.78;5084748;28;20043;-72
2024/01/30 09:31:10;;;;;;;21.13;8.60;;;;;;;10.42;100.00;102463.19;5078037;28;20056;-71
2024/01/30 09:33:36;;;;;;;21.48;8.48;;;;;;;10.49;100.00;102457.22;5076620;28;20028;-70
2024/01/30 09:36:01;;;;;;;21.02;8.80;;;;;;;10.56;100.00;102458.31;5083830;28;20042;-71
2024/01/30 09:38:26;;;;;;;21.13;8.48;;;;;;;10.67;100.00;102462.16;5083059;28;20030;-71
2024/01/30 09:40:57;;;;;;;20.45;8.52;;;;;;;10.72;100.00;102465.84;5083734;28;20066;-70
2024/01/30 09:43:23;;;;;;;20.38;8.43;;;;;;;10.77;100.00;102474.81;5083678;28;20024;-70
2024/01/30 09:45:51;;;;;;;21.80;8.73;;;;;;;10.84;100.00;102477.66;5083026;28;20119;-71
2024/01/30 09:48:16;;;;;;;21.35;8.50;;;;;;;10.84;100.00;102482.94;5084347;28;20048;-77
2024/01/30 09:50:42;;;;;;;21.42;8.48;;;;;;;10.86;100.00;102490.06;5081959;28;20454;-71
2024/01/30 09:53:12;;;;;;;20.60;8.77;;;;;;;10.84;100.00;102480.31;5085106;28;20020;-71
2024/01/30 09:55:42;;;;;;;20.85;8.27;;;;;;;10.82;100.00;102485.56;5077994;28;20098;-71
2024/01/30 09:58:08;;;;;;;20.48;8.52;;;;;;;10.85;100.00;102468.84;5078225;28;20111;-70
2024/01/30 10:00:33;;;;;;;20.95;8.48;;;;;;;10.89;100.00;102473.38;5084562;28;20095;-71
2024/01/30 10:02:58;;;;;;;21.35;8.25;;;;;;;10.89;100.00;102483.97;5082353;28;20036;-70
2024/01/30 10:05:26;;;;;;;21.50;8.77;;;;;;;10.86;100.00;102481.22;5083428;28;20107;-70
2024/01/30 10:07:56;;;;;;;20.50;8.40;;;;;;;10.83;100.00;102487.31;5083231;28;20024;-71
2024/01/30 10:10:23;;;;;;;21.52;8.70;;;;;;;10.82;100.00;102496.13;5082888;28;20032;-70
2024/01/30 10:12:49;;;;;;;21.13;8.55;;;;;;;10.79;100.00;102483.72;5083805;28;20406;-71
2024/01/30 10:15:14;;;;;;;22.10;8.90;;;;;;;10.79;100.00;102485.44;5081611;28;20032;-70
2024/01/30 10:17:40;;;;;;;22.33;8.95;;;;;;;10.80;100.00;102487.22;5083409;28;20039;-73
2024/01/30 10:20:07;;;;;;;22.88;8.85;;;;;;;10.81;100.00;102492.56;5077264;28;20025;-71
2024/01/30 10:22:33;;;;;;;23.02;9.07;;;;;;;10.83;100.00;102495.25;5084169;28;20384;-80
2024/01/30 10:25:00;;;;;;;20.98;8.93;;;;;;;10.85;100.00;102496.22;5080740;28;20020;-71
2024/01/30 10:27:26;;;;;;;21.88;8.80;;;;;;;10.94;100.00;102501.75;5083254;28;20040;-71
2024/01/30 10:29:52;;;;;;;21.40;8.98;;;;;;;10.99;100.00;102509.84;5082901;28;20028;-77
2024/01/30 10:32:17;;;;;;;22.13;9.55;;;;;;;10.98;100.00;102511.59;5082012;28;20154;-74
2024/01/30 10:34:43;;;;;;;22.95;9.30;;;;;;;11.05;100.00;102515.28;5084282;28;20475;-79
2024/01/30 10:37:15;;;;;;;22.23;9.25;;;;;;;11.07;100.00;102508.31;5081006;28;20043;-79
2024/01/30 10:39:41;;;;;;;23.70;9.55;;;;;;;11.13;100.00;102507.59;5077471;28;20108;-78
2024/01/30 10:42:12;;;;;;;21.20;8.88;;;;;;;11.12;100.00;102511.97;5077154;28;20539;-80
2024/01/30 10:44:48;;;;;;;22.70;8.95;;;;;;;11.13;100.00;102512.91;5075975;28;20032;-80
2024/01/30 10:47:21;;;;;;;22.27;9.32;;;;;;;11.13;100.00;102507.59;5078288;28;20028;-79
2024/01/30 10:49:47;;;;;;;22.60;9.48;;;;;;;11.15;100.00;102506.78;5083580;28;20499;-80
2024/01/30 10:52:13;;;;;;;20.92;8.77;;;;;;;11.16;100.00;102508.56;5082044;28;20103;-79
2024/01/30 10:54:44;;;;;;;22.00;9.38;;;;;;;11.23;100.00;102504.34;5084846;28;20032;-80
2024/01/30 10:57:11;;;;;;;22.27;9.80;;;;;;;11.23;100.00;102507.00;5078082;28;20077;-79
2024/01/30 10:59:37;;;;;;;21.45;9.48;;;;;;;11.23;100.00;102512.28;5077356;28;20029;-80
2024/01/30 11:02:03;;;;;;;22.23;9.23;;;;;;;11.21;100.00;102506.03;5083106;28;20085;-79
2024/01/30 11:04:36;;;;;;;20.90;9.15;;;;;;;11.20;100.00;102513.94;5082375;28;20032;-79
2024/01/30 11:07:02;;;;;;;22.33;10.07;;;;;;;11.11;100.00;102515.50;5077861;28;20032;-80